Time;durP1;ratioP1;P1;durP2;ratioP2;P2;SDS_P1;SDS_P2;PMS_P1;PMS_P2;Temp;Humidity;BMP_temperature;BMP_pressure;BME280_temperature;BME280_humidity;BME280_pressure;Samples;Min_cycle;Max_cycle;Signal;HPM_P1;HPM_P2
2022/07/08 00:02:17;;;;;;;2.85;1.45;;;;;;;18.35;52.94;99348.34;1753368;80;20896;-68
2022/07/08 00:04:44;;;;;;;1.20;1.10;;;;;;;18.32;53.00;99352.31;1750206;80;21256;-68
2022/07/08 00:07:10;;;;;;;3.62;1.60;;;;;;;18.29;53.08;99351.92;1772695;80;20911;-68
2022/07/08 00:09:39;;;;;;;3.33;1.30;;;;;;;18.25;53.20;99352.87;1759482;80;21025;-68
2022/07/08 00:12:06;;;;;;;1.98;1.40;;;;;;;18.20;53.34;99351.38;1744625;80;20956;-68
2022/07/08 00:14:34;;;;;;;2.15;1.20;;;;;;;18.17;53.48;99351.02;1761911;80;21492;-68
2022/07/08 00:17:00;;;;;;;3.55;1.27;;;;;;;18.11;53.75;99354.07;1753577;80;21420;-68
2022/07/08 00:19:27;;;;;;;1.82;1.25;;;;;;;18.07;53.96;99350.16;1745936;80;20936;-68
2022/07/08 00:21:53;;;;;;;1.45;1.10;;;;;;;18.02;54.19;99350.52;1758074;80;20967;-68
2022/07/08 00:24:20;;;;;;;3.27;1.20;;;;;;;17.97;54.41;99353.87;1760558;80;21054;-68
2022/07/08 00:26:46;;;;;;;1.90;1.25;;;;;;;17.90;54.62;99351.78;1753934;80;21002;-67
2022/07/08 00:29:13;;;;;;;1.57;1.00;;;;;;;17.86;54.80;99351.38;1757076;80;21120;-67
2022/07/08 00:31:39;;;;;;;3.35;1.95;;;;;;;17.83;54.86;99353.16;1767826;80;20932;-67
2022/07/08 00:34:06;;;;;;;2.05;0.95;;;;;;;17.81;54.89;99349.05;1758378;80;20990;-67
2022/07/08 00:36:35;;;;;;;3.08;1.10;;;;;;;17.82;54.94;99350.19;1763580;80;21038;-67
2022/07/08 00:39:03;;;;;;;4.10;1.07;;;;;;;17.84;54.99;99353.47;1770968;80;20966;-67
2022/07/08 00:41:30;;;;;;;2.00;1.30;;;;;;;17.85;55.03;99352.96;1745591;80;21120;-67
2022/07/08 00:43:57;;;;;;;1.82;1.22;;;;;;;17.86;55.08;99345.17;1753505;80;20927;-67
2022/07/08 00:46:23;;;;;;;1.42;1.20;;;;;;;17.87;55.16;99338.76;1757441;80;20934;-67
2022/07/08 00:48:50;;;;;;;2.87;0.95;;;;;;;17.88;55.20;99342.56;1750745;80;20980;-67
2022/07/08 00:51:18;;;;;;;2.22;1.25;;;;;;;17.88;55.24;99346.59;1763539;80;21571;-67
2022/07/08 00:53:49;;;;;;;1.42;1.32;;;;;;;17.89;55.38;99346.08;1761782;80;21192;-67
2022/07/08 00:56:15;;;;;;;1.92;1.12;;;;;;;17.93;55.39;99339.75;1753933;80;20978;-67
2022/07/08 00:58:43;;;;;;;1.72;1.25;;;;;;;17.94;55.51;99344.89;1744351;80;20863;-67
2022/07/08 01:01:09;;;;;;;4.22;1.20;;;;;;;17.95;55.48;99341.17;1762558;80;20935;-67
2022/07/08 01:03:36;;;;;;;1.30;1.20;;;;;;;17.97;55.44;99339.59;1763179;80;20954;-67
2022/07/08 01:06:03;;;;;;;2.10;1.42;;;;;;;17.99;55.38;99342.36;1747762;80;21296;-67
2022/07/08 01:08:32;;;;;;;1.60;1.12;;;;;;;18.02;55.21;99343.27;1759034;80;21480;-67
2022/07/08 01:10:58;;;;;;;1.42;1.17;;;;;;;18.02;55.07;99341.92;1761272;80;20931;-67
2022/07/08 01:13:25;;;;;;;1.90;1.00;;;;;;;18.06;54.92;99345.01;1767651;80;21417;-67
2022/07/08 01:15:53;;;;;;;2.30;1.30;;;;;;;18.08;54.80;99339.70;1755431;80;20916;-67
2022/07/08 01:18:27;;;;;;;2.62;1.60;;;;;;;18.10;54.67;99334.92;1755485;80;21237;-67
2022/07/08 01:20:54;;;;;;;1.72;1.20;;;;;;;18.13;54.59;99338.52;1744997;80;20852;-67
2022/07/08 01:23:21;;;;;;;2.30;1.40;;;;;;;18.13;54.48;99335.83;1750069;80;20972;-67
2022/07/08 01:25:48;;;;;;;1.80;1.10;;;;;;;18.13;54.56;99333.13;1746811;80;21049;-67
2022/07/08 01:28:15;;;;;;;1.85;1.00;;;;;;;18.13;54.59;99339.86;1736095;80;20932;-67
2022/07/08 01:30:42;;;;;;;2.72;0.90;;;;;;;18.15;54.66;99336.94;1748868;80;21180;-67
2022/07/08 01:33:09;;;;;;;2.37;1.50;;;;;;;18.16;54.67;99340.77;1747391;80;21027;-67
2022/07/08 01:35:36;;;;;;;2.00;1.10;;;;;;;18.16;54.76;99337.25;1764237;80;20998;-67
2022/07/08 01:38:02;;;;;;;3.72;1.65;;;;;;;18.16;54.84;99340.77;1774086;80;20923;-67
2022/07/08 01:40:29;;;;;;;1.57;0.98;;;;;;;18.17;54.95;99338.36;1752957;80;20991;-67
2022/07/08 01:42:55;;;;;;;3.30;1.30;;;;;;;18.17;55.15;99345.64;1744057;80;21258;-67
2022/07/08 01:45:22;;;;;;;2.08;1.07;;;;;;;18.16;55.41;99343.98;1760826;80;20887;-67
2022/07/08 01:47:49;;;;;;;1.12;1.02;;;;;;;18.16;55.66;99343.46;1767906;80;20971;-67
2022/07/08 01:50:15;;;;;;;1.90;1.52;;;;;;;18.17;55.84;99338.91;1755459;80;20864;-67
2022/07/08 01:52:42;;;;;;;2.80;1.62;;;;;;;18.17;55.90;99337.01;1754668;80;20892;-67
2022/07/08 01:55:08;;;;;;;1.60;1.20;;;;;;;18.18;56.00;99333.28;1745720;80;21112;-67
2022/07/08 01:57:35;;;;;;;1.35;1.22;;;;;;;18.20;55.88;99338.44;1690680;84;21038;-67
2022/07/08 02:00:02;;;;;;;2.92;1.22;;;;;;;18.21;55.83;99337.40;1756107;80;20997;-67
2022/07/08 02:02:31;;;;;;;2.75;1.07;;;;;;;18.21;55.87;99342.27;1760827;80;20994;-68
2022/07/08 02:04:58;;;;;;;2.35;1.47;;;;;;;18.21;56.01;99340.92;1751801;80;20928;-68
2022/07/08 02:07:24;;;;;;;3.98;1.30;;;;;;;18.21;56.13;99337.40;1765191;80;21827;-68
2022/07/08 02:09:52;;;;;;;1.45;1.15;;;;;;;18.20;56.31;99341.95;1773323;80;20887;-68
2022/07/08 02:12:19;;;;;;;1.82;1.50;;;;;;;18.21;56.62;99337.40;1754401;80;21092;-68
2022/07/08 02:14:55;;;;;;;1.30;1.00;;;;;;;18.21;56.99;99336.88;1754038;80;21004;-68
2022/07/08 02:17:23;;;;;;;1.80;1.22;;;;;;;18.23;57.00;99336.13;1765129;80;20884;-68
2022/07/08 02:19:51;;;;;;;2.67;1.27;;;;;;;18.28;57.16;99332.76;1753301;80;20912;-68
2022/07/08 02:22:17;;;;;;;1.85;1.27;;;;;;;18.34;57.21;99334.57;1770347;80;21473;-68
2022/07/08 02:24:44;;;;;;;3.12;1.37;;;;;;;18.40;57.04;99337.21;1766146;80;21465;-68
2022/07/08 02:27:10;;;;;;;3.05;1.57;;;;;;;18.47;56.92;99339.33;1769430;80;20987;-68
2022/07/08 02:29:37;;;;;;;2.50;1.20;;;;;;;18.49;56.71;99342.61;1754403;80;21086;-68
2022/07/08 02:32:04;;;;;;;1.30;1.15;;;;;;;18.51;56.57;99349.11;1757820;80;21089;-68
2022/07/08 02:34:31;;;;;;;4.75;1.07;;;;;;;18.52;56.85;99345.38;1703327;83;21429;-68
2022/07/08 02:36:58;;;;;;;1.90;1.27;;;;;;;18.53;57.07;99348.91;1751083;80;20880;-68
2022/07/08 02:39:24;;;;;;;1.82;1.22;;;;;;;18.54;57.15;99349.22;1769467;80;20891;-68
2022/07/08 02:41:51;;;;;;;3.08;1.75;;;;;;;18.54;57.08;99351.36;1767496;80;21055;-68
2022/07/08 02:44:18;;;;;;;1.77;1.20;;;;;;;18.58;57.09;99353.09;1748194;80;21162;-68
2022/07/08 02:46:45;;;;;;;1.95;1.42;;;;;;;18.60;57.33;99350.98;1761080;80;20995;-68
2022/07/08 02:49:12;;;;;;;2.35;1.35;;;;;;;18.59;57.39;99358.80;1771847;80;21378;-68
2022/07/08 02:51:39;;;;;;;1.27;1.17;;;;;;;18.58;57.37;99359.31;1766928;80;21031;-68
2022/07/08 02:54:05;;;;;;;1.37;1.27;;;;;;;18.59;56.80;99360.14;1772522;80;20954;-68
2022/07/08 02:56:34;;;;;;;1.57;1.30;;;;;;;18.62;56.65;99363.70;1744579;80;21234;-68
2022/07/08 02:59:01;;;;;;;2.45;1.67;;;;;;;18.62;56.48;99361.84;1744748;80;20959;-68
2022/07/08 03:01:28;;;;;;;2.12;1.47;;;;;;;18.64;56.36;99362.98;1753528;80;20916;-68
2022/07/08 03:03:54;;;;;;;3.15;1.27;;;;;;;18.65;56.42;99362.74;1757738;80;20899;-68
2022/07/08 03:06:21;;;;;;;2.05;1.40;;;;;;;18.69;56.23;99368.00;1751632;80;20932;-68
2022/07/08 03:08:47;;;;;;;1.65;1.37;;;;;;;18.74;56.09;99360.58;1772649;80;21275;-68
2022/07/08 03:11:14;;;;;;;1.62;1.50;;;;;;;18.78;56.15;99362.59;1767513;80;20918;-68
2022/07/08 03:13:41;;;;;;;4.15;1.22;;;;;;;18.82;56.48;99369.70;1755471;80;20992;-68
2022/07/08 03:16:08;;;;;;;3.92;1.50;;;;;;;18.79;56.98;99363.42;1764652;80;21497;-68
2022/07/08 03:18:35;;;;;;;2.30;1.30;;;;;;;18.76;57.47;99371.95;1756677;80;21109;-68
2022/07/08 03:21:04;;;;;;;2.05;1.60;;;;;;;18.73;58.04;99367.00;1756869;80;21156;-68
2022/07/08 03:23:31;;;;;;;3.00;1.20;;;;;;;18.71;58.59;99371.28;1745062;80;21057;-66
2022/07/08 03:25:58;;;;;;;4.03;1.40;;;;;;;18.74;58.76;99371.36;1760767;80;20947;-67
2022/07/08 03:28:25;;;;;;;2.77;1.57;;;;;;;18.74;58.90;99367.31;1769817;80;20959;-67
2022/07/08 03:30:51;;;;;;;2.25;1.27;;;;;;;18.75;59.31;99374.33;1768743;80;20977;-67
2022/07/08 03:33:18;;;;;;;1.87;1.45;;;;;;;18.75;59.49;99375.68;1750563;80;21260;-67
2022/07/08 03:35:44;;;;;;;2.52;1.30;;;;;;;18.78;59.43;99376.58;1765785;80;21044;-67
2022/07/08 03:38:12;;;;;;;3.37;1.40;;;;;;;18.83;58.73;99375.37;1760679;80;21528;-67
2022/07/08 03:43:23;;;;;;;2.42;1.40;;;;;;;18.95;57.77;99380.33;1776424;80;21385;-67
2022/07/08 03:45:50;;;;;;;4.35;1.40;;;;;;;19.00;58.31;99375.08;1758159;80;22189;-67
2022/07/08 03:48:16;;;;;;;3.58;1.52;;;;;;;19.02;58.50;99378.36;1776891;80;20963;-67
2022/07/08 03:50:42;;;;;;;2.05;1.40;;;;;;;19.04;58.51;99375.73;1758765;80;20994;-67
2022/07/08 03:53:09;;;;;;;7.20;1.70;;;;;;;19.04;58.60;99383.83;1754139;80;20891;-67
2022/07/08 03:55:37;;;;;;;8.35;2.42;;;;;;;19.07;58.75;99379.85;1767255;80;20946;-68
2022/07/08 03:58:03;;;;;;;12.73;3.25;;;;;;;19.10;59.29;99379.41;1762120;80;21254;-68
2022/07/08 04:00:30;;;;;;;14.05;2.95;;;;;;;19.17;60.03;99381.48;1768495;80;20973;-68
2022/07/08 04:02:58;;;;;;;13.10;2.60;;;;;;;19.24;60.60;99388.14;1768082;80;21528;-68
2022/07/08 04:05:24;;;;;;;3.55;1.57;;;;;;;19.32;60.90;99392.67;1768738;80;20942;-68
2022/07/08 04:07:51;;;;;;;7.92;1.75;;;;;;;19.38;60.56;99385.58;1759306;80;20939;-68
2022/07/08 04:10:18;;;;;;;4.08;2.15;;;;;;;19.39;60.26;99386.72;1774530;80;21148;-67
2022/07/08 04:12:46;;;;;;;6.10;3.47;;;;;;;19.42;60.63;99393.53;1749280;80;21223;-68
2022/07/08 04:15:13;;;;;;;3.47;2.25;;;;;;;19.46;61.14;99386.61;1750085;80;20946;-68
2022/07/08 04:17:40;;;;;;;4.25;1.95;;;;;;;19.54;61.17;99388.98;1760757;80;21038;-68
2022/07/08 04:20:09;;;;;;;5.60;1.82;;;;;;;19.69;61.03;99392.90;1761409;80;21532;-68
2022/07/08 04:22:36;;;;;;;3.02;1.65;;;;;;;19.85;61.19;99387.88;1749833;80;21147;-68
2022/07/08 04:25:04;;;;;;;2.37;1.82;;;;;;;20.00;61.01;99392.30;1759205;80;20931;-68
2022/07/08 04:27:30;;;;;;;2.90;1.82;;;;;;;20.12;60.14;99395.85;1763806;80;21564;-68
2022/07/08 04:29:57;;;;;;;3.20;1.95;;;;;;;20.17;59.09;99395.97;1777291;80;21512;-68
2022/07/08 04:32:23;;;;;;;4.62;1.77;;;;;;;20.20;58.87;99394.98;1751772;80;21544;-68
2022/07/08 04:34:51;;;;;;;3.72;2.00;;;;;;;20.26;58.58;99396.77;1751862;80;22148;-68
2022/07/08 04:37:18;;;;;;;7.62;2.00;;;;;;;20.27;57.88;99396.23;1752545;80;21031;-68
2022/07/08 04:39:45;;;;;;;4.30;1.75;;;;;;;20.28;57.64;99400.59;1759642;80;21054;-68
2022/07/08 04:42:12;;;;;;;4.45;2.33;;;;;;;20.37;57.63;99407.27;1768814;80;21263;-69
2022/07/08 04:44:39;;;;;;;4.20;2.40;;;;;;;20.47;57.54;99402.09;1757151;80;20909;-69
2022/07/08 04:47:06;;;;;;;3.40;3.08;;;;;;;20.57;57.56;99408.28;1750443;80;21260;-68
2022/07/08 04:49:32;;;;;;;6.30;2.00;;;;;;;20.68;57.17;99407.42;1759863;80;20884;-68
2022/07/08 04:51:59;;;;;;;4.50;2.42;;;;;;;20.76;56.92;99413.30;1760745;80;20988;-68
2022/07/08 04:54:25;;;;;;;5.72;3.50;;;;;;;20.84;56.81;99413.46;1748689;80;20998;-67
2022/07/08 04:56:52;;;;;;;3.77;2.98;;;;;;;20.90;56.53;99417.41;1760142;80;20918;-67
2022/07/08 04:59:19;;;;;;;4.25;3.02;;;;;;;20.95;56.40;99413.97;1762636;80;21221;-68
2022/07/08 05:01:45;;;;;;;6.33;3.10;;;;;;;21.01;56.46;99418.96;1760492;80;21057;-68
2022/07/08 05:04:12;;;;;;;7.85;4.10;;;;;;;21.09;56.42;99420.77;1700738;83;21556;-68
2022/07/08 05:06:39;;;;;;;8.10;5.22;;;;;;;21.18;56.50;99419.88;1766646;80;21067;-69
2022/07/08 05:09:06;;;;;;;9.73;5.33;;;;;;;21.25;56.46;99417.84;1768418;80;21515;-69
2022/07/08 05:11:34;;;;;;;14.83;5.60;;;;;;;21.30;56.28;99417.97;1694741;81;21497;-69
2022/07/08 05:14:01;;;;;;;9.08;4.70;;;;;;;21.37;56.29;99415.94;1691698;84;20934;-71
2022/07/08 05:16:29;;;;;;;11.90;5.03;;;;;;;21.45;55.78;99419.61;1691593;83;21099;-71
2022/07/08 05:18:55;;;;;;;8.33;4.55;;;;;;;21.51;55.36;99419.97;1694638;84;21528;-67
2022/07/08 05:21:22;;;;;;;10.48;4.80;;;;;;;21.56;55.36;99421.45;1689787;84;21586;-68
2022/07/08 05:23:49;;;;;;;17.75;4.75;;;;;;;21.65;55.39;99422.69;1686978;84;21897;-68
2022/07/08 05:26:17;;;;;;;8.40;4.67;;;;;;;21.73;54.79;99416.88;1687123;84;21452;-68
2022/07/08 05:28:44;;;;;;;9.75;4.42;;;;;;;21.80;54.65;99418.89;1691409;84;21021;-67
2022/07/08 05:31:10;;;;;;;26.87;18.82;;;;;;;21.93;54.19;99413.20;1694274;84;20999;-68
2022/07/08 05:33:36;;;;;;;9.75;7.05;;;;;;;22.11;54.20;99421.08;1682519;83;21003;-69
2022/07/08 05:36:06;;;;;;;11.05;5.95;;;;;;;22.32;53.66;99418.16;1691921;83;21357;-69
2022/07/08 05:38:34;;;;;;;9.18;5.15;;;;;;;22.58;53.00;99416.64;1686131;83;20981;-68
2022/07/08 05:41:00;;;;;;;6.87;4.37;;;;;;;22.88;52.15;99417.64;1686647;83;21071;-67
2022/07/08 05:43:27;;;;;;;7.97;4.60;;;;;;;23.13;51.05;99420.14;1688984;84;21063;-68
2022/07/08 05:45:54;;;;;;;10.70;3.90;;;;;;;23.42;50.22;99420.78;1686773;83;21084;-67
2022/07/08 05:48:21;;;;;;;7.58;4.72;;;;;;;23.89;49.26;99414.19;1689985;84;21139;-68
2022/07/08 05:50:48;;;;;;;11.22;4.22;;;;;;;24.29;48.18;99413.21;1690390;84;20946;-63
2022/07/08 05:53:16;;;;;;;7.72;3.92;;;;;;;24.67;47.19;99413.98;1677850;84;20946;-67
2022/07/08 05:55:44;;;;;;;12.10;3.22;;;;;;;25.06;46.13;99413.95;1690603;84;21453;-67
2022/07/08 05:58:10;;;;;;;10.10;3.55;;;;;;;25.45;45.09;99412.45;1684277;84;21474;-68
2022/07/08 06:00:38;;;;;;;6.33;3.00;;;;;;;26.03;44.42;99407.66;1693437;84;21276;-68
2022/07/08 06:03:05;;;;;;;7.22;2.85;;;;;;;27.50;42.14;99404.90;1690477;84;21013;-65
2022/07/08 06:05:32;;;;;;;6.08;3.20;;;;;;;28.68;39.37;99396.30;1691058;83;21034;-67
2022/07/08 06:07:58;;;;;;;8.50;3.10;;;;;;;29.30;37.98;99401.62;1686450;84;20927;-67
2022/07/08 06:10:30;;;;;;;10.38;3.22;;;;;;;29.48;36.90;99403.28;1687221;83;20931;-65
2022/07/08 06:12:54;;;;;;;6.35;2.85;;;;;;;29.46;36.95;99405.52;1689833;83;22562;-67
2022/07/08 06:15:21;;;;;;;10.18;4.15;;;;;;;29.58;37.10;99403.95;1686045;84;21002;-68
2022/07/08 06:17:47;;;;;;;9.18;4.65;;;;;;;29.90;36.62;99409.52;1691260;84;21024;-68
2022/07/08 06:20:14;;;;;;;10.05;5.33;;;;;;;30.32;35.91;99404.42;1697274;84;20959;-68
2022/07/08 06:22:41;;;;;;;13.38;7.40;;;;;;;30.65;34.92;99405.25;1697160;84;20916;-68
2022/07/08 06:25:08;;;;;;;14.85;13.55;;;;;;;30.76;34.74;99412.18;1698908;84;21255;-67
2022/07/08 06:27:37;;;;;;;16.65;13.90;;;;;;;30.88;34.78;99402.87;1698014;84;20931;-68
2022/07/08 06:30:04;;;;;;;13.58;12.10;;;;;;;31.12;34.83;99405.44;1692702;84;21527;-66
2022/07/08 06:32:31;;;;;;;15.48;12.98;;;;;;;31.48;34.40;99402.20;1692444;84;20959;-67
2022/07/08 06:34:57;;;;;;;20.77;15.65;;;;;;;31.84;33.84;99396.69;1691535;84;20954;-67
2022/07/08 06:37:24;;;;;;;14.53;11.45;;;;;;;32.43;32.83;99397.45;1689266;84;21249;-67
2022/07/08 06:39:51;;;;;;;11.15;7.45;;;;;;;32.63;32.25;99396.94;1696052;84;20932;-67
2022/07/08 06:42:19;;;;;;;12.53;7.40;;;;;;;32.56;31.65;99392.45;1696336;84;20952;-67
2022/07/08 06:44:46;;;;;;;18.10;7.70;;;;;;;32.60;31.70;99392.88;1692543;84;21013;-66
2022/07/08 06:47:12;;;;;;;9.25;6.37;;;;;;;32.79;31.69;99392.08;1698777;84;21075;-67
2022/07/08 06:49:39;;;;;;;13.00;5.00;;;;;;;33.03;31.49;99397.75;1699739;84;21200;-68
2022/07/08 06:52:06;;;;;;;9.00;7.65;;;;;;;33.11;31.06;99390.92;1696281;84;20983;-67
2022/07/08 06:54:35;;;;;;;6.35;3.77;;;;;;;33.51;30.62;99393.00;1693052;84;21023;-67
2022/07/08 06:57:04;;;;;;;4.90;3.52;;;;;;;34.44;28.82;99387.20;1699676;84;21026;-67
2022/07/08 06:59:32;;;;;;;3.37;2.67;;;;;;;35.12;27.92;99390.30;1699725;84;21291;-66
2022/07/08 07:01:59;;;;;;;4.03;3.33;;;;;;;35.51;26.95;99397.37;1698905;84;21121;-68
2022/07/08 07:04:27;;;;;;;3.58;2.92;;;;;;;36.04;26.52;99392.52;1692865;84;20944;-68
2022/07/08 07:06:54;;;;;;;7.75;2.83;;;;;;;37.49;24.92;99385.00;1692422;84;20943;-68
2022/07/08 07:09:21;;;;;;;7.87;2.80;;;;;;;38.77;23.14;99382.70;1695201;84;21053;-67
2022/07/08 07:11:48;;;;;;;4.72;3.20;;;;;;;38.76;22.57;99385.85;1695942;84;20987;-68
2022/07/08 07:14:15;;;;;;;6.90;2.75;;;;;;;38.22;22.81;99384.97;1696137;84;21237;-68
2022/07/08 07:16:41;;;;;;;5.80;2.98;;;;;;;37.93;22.77;99382.58;1697935;84;20999;-68
2022/07/08 07:19:09;;;;;;;5.42;2.85;;;;;;;37.63;23.27;99384.84;1696867;84;21007;-68
2022/07/08 07:21:37;;;;;;;6.42;3.00;;;;;;;37.74;23.25;99379.61;1698360;84;20952;-68
2022/07/08 07:24:05;;;;;;;11.60;4.03;;;;;;;38.08;22.89;99382.39;1696639;84;20952;-68
2022/07/08 07:26:31;;;;;;;5.97;3.40;;;;;;;38.36;22.57;99381.80;1699326;84;21797;-68
2022/07/08 07:28:58;;;;;;;11.45;3.50;;;;;;;38.56;22.38;99374.39;1689291;84;21616;-68
2022/07/08 07:31:24;;;;;;;5.30;3.27;;;;;;;38.73;22.15;99381.79;1694278;84;21489;-68
2022/07/08 07:33:51;;;;;;;4.37;3.00;;;;;;;39.16;21.47;99382.25;1695721;84;21075;-68
2022/07/08 07:36:17;;;;;;;4.53;2.90;;;;;;;39.85;20.61;99387.03;1695303;84;21496;-67
2022/07/08 07:38:43;;;;;;;6.33;3.42;;;;;;;40.53;19.87;99378.04;1691839;84;21616;-67
2022/07/08 07:41:10;;;;;;;4.65;2.80;;;;;;;41.44;19.42;99375.95;1695854;84;21093;-67
2022/07/08 07:43:38;;;;;;;9.13;2.72;;;;;;;42.23;18.37;99373.80;1698132;84;20924;-67
2022/07/08 07:46:04;;;;;;;9.18;3.20;;;;;;;42.42;17.94;99374.20;1697707;84;21081;-66
2022/07/08 07:48:31;;;;;;;6.65;2.65;;;;;;;42.45;17.64;99376.20;1699217;84;20956;-67
2022/07/08 07:50:58;;;;;;;7.12;3.15;;;;;;;42.71;17.44;99375.29;1699322;84;21237;-67
2022/07/08 07:53:25;;;;;;;6.90;3.02;;;;;;;43.07;16.78;99372.19;1687645;84;20986;-67
2022/07/08 07:55:52;;;;;;;6.12;2.87;;;;;;;43.05;16.77;99365.56;1695714;84;21008;-67
2022/07/08 07:58:18;;;;;;;5.00;2.40;;;;;;;43.12;17.12;99367.03;1693917;84;21480;-67
2022/07/08 08:00:45;;;;;;;2.95;1.55;;;;;;;43.92;15.79;99361.69;1697016;83;21067;-67
2022/07/08 08:03:12;;;;;;;3.08;1.47;;;;;;;44.54;14.74;99361.45;1690593;84;22235;-67
2022/07/08 08:05:42;;;;;;;2.85;1.42;;;;;;;45.17;14.20;99364.25;1692997;84;21461;-67
2022/07/08 08:08:10;;;;;;;3.10;1.30;;;;;;;45.52;13.48;99368.20;1696397;84;21038;-66
2022/07/08 08:10:36;;;;;;;2.30;1.30;;;;;;;45.65;13.33;99357.55;1687354;84;21030;-67
2022/07/08 08:13:04;;;;;;;2.50;1.30;;;;;;;46.01;12.48;99357.39;1702657;84;21509;-67
2022/07/08 08:15:32;;;;;;;3.52;1.65;;;;;;;46.11;11.96;99360.75;1701231;84;21373;-66
2022/07/08 08:18:00;;;;;;;3.12;0.95;;;;;;;46.11;11.80;99360.75;1703556;84;20892;-67
2022/07/08 08:20:29;;;;;;;2.08;1.00;;;;;;;46.37;11.71;99358.80;1702959;84;20987;-67
2022/07/08 08:22:55;;;;;;;5.20;1.15;;;;;;;46.19;11.81;99358.09;1702620;84;20941;-67
2022/07/08 08:25:22;;;;;;;3.02;1.25;;;;;;;45.72;11.84;99358.92;1704690;84;21026;-67
2022/07/08 08:27:49;;;;;;;3.25;0.90;;;;;;;45.83;12.01;99357.47;1701107;84;21145;-67
2022/07/08 08:30:16;;;;;;;1.92;0.90;;;;;;;46.15;10.81;99362.32;1701555;84;20947;-67
2022/07/08 08:32:43;;;;;;;1.95;0.70;;;;;;;45.54;10.62;99370.00;1691280;84;21056;-67
2022/07/08 08:35:09;;;;;;;2.77;1.10;;;;;;;44.32;10.80;99367.63;1702357;84;21211;-67
2022/07/08 08:37:36;;;;;;;2.33;0.78;;;;;;;42.14;11.88;99366.89;1700471;84;20982;-67
2022/07/08 08:40:05;;;;;;;2.87;1.82;;;;;;;40.17;12.82;99370.17;1703126;84;22169;-67
2022/07/08 08:42:32;;;;;;;3.77;1.20;;;;;;;38.32;13.92;99362.86;1702097;84;20924;-66
2022/07/08 08:44:59;;;;;;;5.90;2.50;;;;;;;37.49;15.43;99365.59;1704085;84;20919;-66
2022/07/08 08:47:31;;;;;;;6.75;4.83;;;;;;;38.43;15.92;99359.78;1703875;83;20944;-66
2022/07/08 08:52:48;;;;;;;4.75;3.58;;;;;;;41.16;15.44;99360.98;1693225;84;21287;-66
2022/07/08 08:55:28;;;;;;;4.30;3.62;;;;;;;42.11;14.17;99348.09;1700221;84;20943;-66
2022/07/08 08:58:04;;;;;;;5.08;2.30;;;;;;;42.85;13.16;99347.41;1699931;84;20954;-67
2022/07/08 09:00:35;;;;;;;3.55;2.62;;;;;;;42.49;12.98;99350.48;1698763;84;20947;-66
2022/07/08 09:03:02;;;;;;;4.17;2.77;;;;;;;42.01;13.52;99346.77;1696920;84;21024;-66
2022/07/08 09:05:29;;;;;;;3.17;2.52;;;;;;;42.16;13.60;99349.17;1698133;84;21146;-67
2022/07/08 09:07:57;;;;;;;5.22;3.40;;;;;;;42.40;13.81;99345.20;1701887;84;38413;-66
2022/07/08 09:10:24;;;;;;;3.52;2.72;;;;;;;43.15;13.43;99343.88;1699787;84;20990;-66
2022/07/08 09:13:10;;;;;;;1.60;1.40;;;;;;;44.06;12.12;99350.53;1702766;84;21076;-66
2022/07/08 09:15:47;;;;;;;2.08;1.20;;;;;;;43.28;11.75;99347.14;1701696;84;20863;-66
2022/07/08 09:18:18;;;;;;;1.40;1.10;;;;;;;41.25;12.84;99353.13;1703736;84;20943;-66
2022/07/08 09:20:51;;;;;;;2.92;1.20;;;;;;;39.89;14.11;99355.09;1703227;84;20903;-66
2022/07/08 09:23:29;;;;;;;1.32;1.15;;;;;;;38.92;14.47;99349.70;1702954;84;20956;-66
2022/07/08 09:25:58;;;;;;;2.17;1.50;;;;;;;38.00;15.52;99350.03;1693093;84;20946;-66
2022/07/08 09:28:37;;;;;;;2.05;1.40;;;;;;;38.05;16.06;99345.03;1697418;84;20991;-66
2022/07/08 09:31:08;;;;;;;4.42;1.70;;;;;;;39.15;15.69;99342.30;1698775;84;21182;-67
2022/07/08 09:33:35;;;;;;;4.45;1.85;;;;;;;40.29;14.81;99339.34;1701961;84;20951;-69
2022/07/08 09:36:03;;;;;;;3.17;1.77;;;;;;;40.78;14.58;99340.84;1700278;84;20966;-66
2022/07/08 09:38:35;;;;;;;2.55;1.80;;;;;;;40.91;14.53;99340.27;1703029;83;20952;-66
2022/07/08 09:41:04;;;;;;;2.58;2.00;;;;;;;40.83;14.48;99332.93;1702044;84;20895;-67
2022/07/08 09:43:33;;;;;;;2.27;2.02;;;;;;;40.26;14.85;99333.15;1703955;84;21266;-66
2022/07/08 09:46:05;;;;;;;3.92;2.17;;;;;;;39.40;15.36;99333.94;1703699;84;20994;-66
2022/07/08 09:48:31;;;;;;;1.95;1.82;;;;;;;38.28;15.85;99332.16;1704785;84;21007;-66
2022/07/08 09:51:00;;;;;;;4.47;2.15;;;;;;;37.20;16.53;99336.72;1699922;84;21069;-66
2022/07/08 09:53:28;;;;;;;3.55;1.67;;;;;;;36.36;17.84;99339.66;1695811;84;21582;-67
2022/07/08 09:55:56;;;;;;;3.27;1.32;;;;;;;35.56;18.59;99341.91;1701522;84;21162;-67
2022/07/08 09:58:24;;;;;;;3.40;1.35;;;;;;;34.60;19.46;99339.17;1700726;84;21493;-67
2022/07/08 10:00:53;;;;;;;2.55;1.47;;;;;;;33.82;20.14;99338.52;1699037;84;21035;-67
2022/07/08 10:03:21;;;;;;;2.25;1.15;;;;;;;33.34;20.58;99334.55;1700295;83;20944;-67
2022/07/08 10:05:47;;;;;;;1.47;1.00;;;;;;;33.05;21.17;99330.20;1700352;84;21049;-67
2022/07/08 10:08:15;;;;;;;3.58;1.00;;;;;;;32.80;21.54;99331.71;1702016;84;21142;-67
2022/07/08 10:10:44;;;;;;;1.45;0.98;;;;;;;32.71;21.98;99334.20;1700947;84;21038;-67
2022/07/08 10:13:11;;;;;;;2.50;1.00;;;;;;;32.63;21.85;99326.72;1699272;84;20924;-67
2022/07/08 10:15:39;;;;;;;2.87;1.52;;;;;;;32.58;22.10;99324.92;1696856;84;21007;-67
2022/07/08 10:18:16;;;;;;;2.33;1.10;;;;;;;32.50;22.17;99320.16;1698772;84;20959;-67
2022/07/08 10:20:47;;;;;;;3.95;1.60;;;;;;;32.36;22.23;99323.57;1698817;83;22189;-67
2022/07/08 10:23:30;;;;;;;2.25;1.60;;;;;;;32.31;22.33;99315.45;1697048;84;20960;-67
2022/07/08 10:25:58;;;;;;;1.90;1.05;;;;;;;32.29;22.24;99317.72;1646392;86;20995;-66
2022/07/08 10:28:38;;;;;;;2.55;1.05;;;;;;;32.21;22.21;99317.92;1696320;84;20984;-68
2022/07/08 10:31:22;;;;;;;0.88;0.88;;;;;;;32.09;21.60;99316.33;1688020;84;21006;-67
2022/07/08 10:33:50;;;;;;;2.65;1.10;;;;;;;31.80;21.83;99315.95;1696638;84;21243;-67
2022/07/08 10:36:21;;;;;;;2.52;1.10;;;;;;;31.60;22.47;99314.49;1696426;84;20968;-67
2022/07/08 10:38:50;;;;;;;2.40;1.12;;;;;;;31.55;23.07;99306.38;1697975;84;20975;-67
2022/07/08 10:41:19;;;;;;;3.55;1.45;;;;;;;31.57;23.46;99308.23;1697738;84;20981;-67
2022/07/08 10:43:54;;;;;;;1.35;1.20;;;;;;;31.58;23.43;99310.44;1698951;84;21509;-68
2022/07/08 10:46:22;;;;;;;3.10;1.20;;;;;;;31.53;23.81;99308.63;1698625;84;21144;-67
2022/07/08 10:48:57;;;;;;;5.33;1.40;;;;;;;31.48;23.40;99305.19;1674564;84;21014;-67
2022/07/08 10:51:29;;;;;;;3.00;1.60;;;;;;;31.41;24.04;99308.90;1692713;84;21058;-67
2022/07/08 10:54:00;;;;;;;3.98;1.40;;;;;;;31.36;24.25;99304.90;1682904;84;20999;-67
2022/07/08 10:56:49;;;;;;;2.70;1.37;;;;;;;31.39;23.95;99303.70;1694180;84;21018;-67
2022/07/08 10:59:28;;;;;;;2.30;1.52;;;;;;;31.39;23.96;99303.70;1696989;84;22617;-66
2022/07/08 11:02:14;;;;;;;5.50;1.47;;;;;;;31.37;24.18;99308.70;1692691;84;20967;-67
2022/07/08 11:04:45;;;;;;;4.58;1.80;;;;;;;31.08;23.80;99305.52;1675106;84;21524;-66
2022/07/08 11:07:22;;;;;;;4.83;1.30;;;;;;;30.86;24.03;99303.51;1694343;84;21084;-66
2022/07/08 11:10:06;;;;;;;2.75;1.10;;;;;;;30.69;24.13;99305.27;1697533;84;21517;-66
2022/07/08 11:12:36;;;;;;;2.47;1.45;;;;;;;30.54;24.20;99302.25;1691241;84;21280;-66
2022/07/08 11:15:17;;;;;;;5.08;1.25;;;;;;;30.44;24.29;99306.02;1684190;85;20946;-66
2022/07/08 11:17:51;;;;;;;6.85;1.47;;;;;;;30.29;24.51;99302.16;1676270;85;21019;-67
2022/07/08 11:20:18;;;;;;;1.87;1.30;;;;;;;30.13;24.76;99298.07;1684428;84;21017;-66
2022/07/08 11:22:45;;;;;;;3.15;1.32;;;;;;;30.03;24.59;99292.77;1681653;85;20970;-66
2022/07/08 11:25:14;;;;;;;3.12;1.00;;;;;;;29.97;24.83;99292.60;1684186;85;21457;-67
2022/07/08 11:27:43;;;;;;;2.37;0.95;;;;;;;29.95;25.53;99289.35;1684225;84;21451;-66
2022/07/08 11:30:13;;;;;;;1.65;0.93;;;;;;;29.92;25.55;99289.40;1684409;84;20911;-66
2022/07/08 11:32:40;;;;;;;2.60;1.00;;;;;;;29.92;25.59;99285.84;1684230;83;21434;-67
2022/07/08 11:35:08;;;;;;;3.65;1.40;;;;;;;29.96;25.41;99285.48;1684300;85;21078;-68
2022/07/08 11:37:41;;;;;;;4.95;1.35;;;;;;;30.01;25.75;99288.12;1684174;85;21222;-67
2022/07/08 11:40:11;;;;;;;1.07;0.98;;;;;;;30.11;26.02;99285.22;1684409;84;20951;-67
2022/07/08 11:42:41;;;;;;;1.98;1.22;;;;;;;30.17;25.21;99283.99;1681840;85;21175;-66